createdAt,value
2019-01-02T00:00:59.176Z,0.00
2019-01-02T00:02:00.036Z,0.00
2019-01-02T00:02:59.211Z,0.00
2019-01-02T00:03:58.573Z,0.00
2019-01-02T00:05:00.012Z,0.00
2019-01-02T00:05:58.399Z,0.00
2019-01-02T00:06:58.408Z,0.00
2019-01-02T00:07:59.178Z,0.00
2019-01-02T00:08:58.426Z,0.00
2019-01-02T00:09:58.477Z,0.00
2019-01-02T00:10:58.413Z,0.00
2019-01-02T00:11:58.387Z,0.00
2019-01-02T00:12:58.460Z,0.00
2019-01-02T00:13:58.478Z,0.00
2019-01-02T00:14:59.591Z,0.00
2019-01-02T00:16:00.410Z,0.00
2019-01-02T00:16:59.086Z,0.00
2019-01-02T00:17:59.012Z,0.00
2019-01-02T00:18:59.872Z,0.00
2019-01-02T00:19:58.940Z,0.00
2019-01-02T00:20:58.474Z,0.00
2019-01-02T00:21:59.800Z,0.00
2019-01-02T00:23:00.510Z,0.00
2019-01-02T00:23:59.019Z,0.00
2019-01-02T00:24:58.568Z,0.00
2019-01-02T00:25:58.673Z,0.00
2019-01-02T00:26:58.490Z,0.00
2019-01-02T00:27:59.501Z,0.00
2019-01-02T00:28:58.683Z,0.00
2019-01-02T00:29:58.681Z,0.00
2019-01-02T00:30:58.645Z,0.00
2019-01-02T00:31:58.503Z,0.00
2019-01-02T00:32:58.534Z,0.00
2019-01-02T00:33:58.520Z,0.00
2019-01-02T00:34:58.530Z,0.00
2019-01-02T00:35:58.530Z,0.00
2019-01-02T00:36:58.504Z,0.00
2019-01-02T00:37:58.495Z,0.00
2019-01-02T00:38:58.512Z,0.00
2019-01-02T00:39:58.491Z,0.00
2019-01-02T00:40:58.477Z,0.00
2019-01-02T00:41:58.496Z,0.00
2019-01-02T00:42:58.492Z,0.00
2019-01-02T00:43:58.479Z,0.00
2019-01-02T00:44:58.517Z,0.00
2019-01-02T00:45:58.497Z,0.00
2019-01-02T00:46:58.516Z,0.00
2019-01-02T00:47:58.502Z,0.00
2019-01-02T00:48:58.520Z,0.00
2019-01-02T00:49:58.529Z,0.00
2019-01-02T00:50:58.617Z,0.00
2019-01-02T00:51:58.611Z,0.00
2019-01-02T00:52:58.507Z,0.00
2019-01-02T00:53:58.626Z,0.00
2019-01-02T00:54:59.185Z,0.00
2019-01-02T00:55:58.592Z,0.00
2019-01-02T00:56:58.587Z,0.00
2019-01-02T00:57:58.527Z,0.00
2019-01-02T00:58:58.544Z,0.00
2019-01-02T00:59:58.551Z,0.00
2019-01-02T01:00:58.558Z,0.00
2019-01-02T01:01:58.532Z,0.00
2019-01-02T01:02:58.591Z,0.00
2019-01-02T01:03:58.549Z,0.00
2019-01-02T01:04:58.571Z,0.00
2019-01-02T01:05:58.545Z,0.00
2019-01-02T01:06:58.609Z,0.00
2019-01-02T01:07:58.599Z,0.00
2019-01-02T01:08:58.564Z,0.00
2019-01-02T01:09:58.567Z,0.00
2019-01-02T01:10:58.788Z,0.00
2019-01-02T01:11:58.687Z,0.00
2019-01-02T01:12:58.629Z,0.00
2019-01-02T01:13:58.594Z,0.00
2019-01-02T01:14:58.563Z,0.00
2019-01-02T01:15:58.593Z,0.00
2019-01-02T01:16:58.621Z,0.00
2019-01-02T01:17:58.639Z,0.00
2019-01-02T01:18:58.592Z,0.00
2019-01-02T01:19:58.611Z,0.00
2019-01-02T01:20:58.689Z,0.00
2019-01-02T01:21:58.620Z,0.00
2019-01-02T01:22:58.590Z,0.00
2019-01-02T01:23:58.643Z,0.00
2019-01-02T01:24:58.600Z,0.00
2019-01-02T01:25:58.608Z,0.00
2019-01-02T01:26:58.606Z,0.00
2019-01-02T01:27:58.666Z,0.00
2019-01-02T01:28:58.706Z,0.00
2019-01-02T01:29:58.620Z,0.00
2019-01-02T01:30:58.742Z,0.00
2019-01-02T01:31:59.812Z,0.00
2019-01-02T01:32:58.854Z,0.00
2019-01-02T01:33:58.683Z,0.00
2019-01-02T01:34:58.899Z,0.00
2019-01-02T01:35:59.194Z,0.00
2019-01-02T01:36:58.674Z,0.00
2019-01-02T01:37:58.649Z,0.00
2019-01-02T01:38:58.637Z,0.00
2019-01-02T01:39:58.658Z,0.00
2019-01-02T01:40:58.676Z,0.00
2019-01-02T01:41:58.659Z,0.00
2019-01-02T01:42:58.672Z,0.00
2019-01-02T01:43:58.668Z,0.00
2019-01-02T01:44:58.690Z,0.00
2019-01-02T01:45:58.733Z,0.00
2019-01-02T01:46:58.661Z,0.00
2019-01-02T01:47:59.395Z,0.00
2019-01-02T01:48:58.678Z,0.00
2019-01-02T01:49:58.679Z,0.00
2019-01-02T01:50:58.685Z,0.00
2019-01-02T01:51:58.794Z,0.00
2019-01-02T01:52:58.691Z,0.00
2019-01-02T01:53:58.729Z,0.00
2019-01-02T01:54:58.686Z,0.00
2019-01-02T01:55:58.751Z,0.00
2019-01-02T01:56:58.742Z,0.00
2019-01-02T01:57:59.086Z,0.00
2019-01-02T01:58:58.915Z,0.00
2019-01-02T01:59:58.828Z,0.00
2019-01-02T02:00:58.824Z,0.00
2019-01-02T02:01:58.932Z,0.00
2019-01-02T02:02:59.316Z,0.00
2019-01-02T02:03:58.837Z,0.00
2019-01-02T02:04:59.004Z,0.00
2019-01-02T02:05:58.964Z,0.00
2019-01-02T02:06:58.911Z,0.00
2019-01-02T02:08:01.535Z,0.00
2019-01-02T02:09:00.685Z,0.00
2019-01-02T02:10:01.523Z,0.00
2019-01-02T02:10:59.498Z,0.00
2019-01-02T02:11:58.851Z,0.00
2019-01-02T02:12:58.934Z,0.00
2019-01-02T02:13:58.822Z,0.00
2019-01-02T02:14:58.833Z,0.00
2019-01-02T02:15:58.929Z,0.00
2019-01-02T02:16:58.868Z,0.00
2019-01-02T02:17:58.857Z,0.00
2019-01-02T02:18:58.884Z,0.00
2019-01-02T02:19:58.952Z,0.00
2019-01-02T02:20:58.861Z,0.00
2019-01-02T02:21:58.867Z,0.00
2019-01-02T02:22:58.870Z,0.00
2019-01-02T02:23:58.965Z,0.00
2019-01-02T02:24:59.013Z,0.00
2019-01-02T02:25:58.860Z,0.00
2019-01-02T02:26:58.860Z,0.00
2019-01-02T02:27:58.850Z,0.00
2019-01-02T02:28:58.925Z,0.00
2019-01-02T02:29:58.886Z,0.00
2019-01-02T02:30:58.857Z,0.00
2019-01-02T02:31:58.822Z,0.00
2019-01-02T02:32:58.815Z,0.00
2019-01-02T02:33:58.880Z,0.00
2019-01-02T02:34:58.876Z,0.00
2019-01-02T02:35:58.892Z,0.00
2019-01-02T02:36:58.869Z,0.00
2019-01-02T02:37:58.857Z,0.00
2019-01-02T02:38:58.907Z,0.00
2019-01-02T02:39:58.874Z,0.00
2019-01-02T02:40:58.917Z,0.00
2019-01-02T02:41:58.849Z,0.00
2019-01-02T02:42:58.918Z,0.00
2019-01-02T02:43:58.887Z,0.00
2019-01-02T02:44:58.846Z,0.00
2019-01-02T02:45:58.866Z,0.00
2019-01-02T02:46:58.890Z,0.00
2019-01-02T02:47:58.879Z,0.00
2019-01-02T02:48:58.940Z,0.00
2019-01-02T02:49:58.880Z,0.00
2019-01-02T02:50:58.910Z,0.00
2019-01-02T02:51:58.976Z,0.00
2019-01-02T02:52:58.940Z,0.00
2019-01-02T02:53:58.939Z,0.00
2019-01-02T02:54:58.966Z,0.00
2019-01-02T02:55:58.911Z,0.00
2019-01-02T02:56:58.954Z,0.00
2019-01-02T02:57:58.918Z,0.00
2019-01-02T02:58:58.915Z,0.00
2019-01-02T02:59:58.894Z,0.00
2019-01-02T03:00:58.998Z,0.00
2019-01-02T03:01:58.991Z,0.00
2019-01-02T03:02:58.945Z,0.00
2019-01-02T03:03:58.893Z,0.00
2019-01-02T03:04:58.963Z,0.00
2019-01-02T03:05:58.963Z,0.00
2019-01-02T03:06:58.986Z,0.00
2019-01-02T03:07:58.896Z,0.00
2019-01-02T03:08:58.989Z,0.00
2019-01-02T03:09:58.915Z,0.00
2019-01-02T03:10:59.508Z,0.00
2019-01-02T03:11:58.988Z,0.00
2019-01-02T03:12:58.971Z,0.00
2019-01-02T03:13:58.965Z,0.00
2019-01-02T03:14:58.949Z,0.00
2019-01-02T03:15:59.003Z,0.00
2019-01-02T03:16:58.946Z,0.00
2019-01-02T03:17:58.933Z,0.00
2019-01-02T03:18:58.958Z,0.00
2019-01-02T03:19:58.973Z,0.00
2019-01-02T03:20:58.933Z,0.00
2019-01-02T03:21:58.988Z,0.00
2019-01-02T03:22:58.958Z,0.00
2019-01-02T03:23:58.994Z,0.00
2019-01-02T03:24:59.001Z,0.00
2019-01-02T03:25:58.984Z,0.00
2019-01-02T03:26:58.993Z,0.00
2019-01-02T03:27:58.987Z,0.00
2019-01-02T03:28:58.990Z,0.00
2019-01-02T03:29:59.022Z,0.00
2019-01-02T03:30:59.005Z,0.00
2019-01-02T03:31:59.001Z,0.00
2019-01-02T03:32:59.037Z,0.00
2019-01-02T03:33:59.013Z,0.00
2019-01-02T03:34:58.979Z,0.00
2019-01-02T03:35:59.047Z,0.00
2019-01-02T03:36:59.044Z,0.00
2019-01-02T03:37:59.041Z,0.00
2019-01-02T03:38:59.060Z,0.00
2019-01-02T03:39:59.005Z,0.00
2019-01-02T03:40:59.103Z,0.00
2019-01-02T03:41:59.057Z,0.00
2019-01-02T03:42:59.007Z,0.00
2019-01-02T03:43:59.075Z,0.00
2019-01-02T03:44:59.045Z,0.00
2019-01-02T03:45:59.085Z,0.00
2019-01-02T03:46:59.122Z,0.00
2019-01-02T03:47:59.051Z,0.00
2019-01-02T03:48:59.047Z,0.00
2019-01-02T03:49:59.069Z,0.00
2019-01-02T03:50:59.058Z,0.00
2019-01-02T03:51:59.071Z,0.00
2019-01-02T03:52:59.084Z,0.00
2019-01-02T03:53:59.137Z,0.00
2019-01-02T03:54:59.172Z,0.00
2019-01-02T03:55:59.152Z,0.00
2019-01-02T03:56:59.133Z,0.00
2019-01-02T03:57:59.096Z,0.00
2019-01-02T03:58:59.089Z,0.00
2019-01-02T03:59:59.097Z,0.00
2019-01-02T04:00:59.125Z,0.00
2019-01-02T04:01:59.131Z,0.00
2019-01-02T04:02:59.106Z,0.00
2019-01-02T04:03:59.080Z,0.00
2019-01-02T04:04:59.099Z,0.00
2019-01-02T04:05:59.152Z,0.00
2019-01-02T04:06:59.111Z,0.00
2019-01-02T04:07:59.111Z,0.00
2019-01-02T04:08:59.179Z,0.00
2019-01-02T04:09:59.127Z,0.00
2019-01-02T04:10:59.109Z,0.00
2019-01-02T04:11:59.102Z,0.00
2019-01-02T04:12:59.108Z,0.00
2019-01-02T04:13:59.182Z,0.00
2019-01-02T04:14:59.126Z,0.00
2019-01-02T04:15:59.126Z,0.00
2019-01-02T04:16:59.122Z,0.00
2019-01-02T04:17:59.170Z,0.00
2019-01-02T04:18:59.174Z,0.00
2019-01-02T04:19:59.235Z,0.00
2019-01-02T04:20:59.162Z,0.00
2019-01-02T04:21:59.162Z,0.00
2019-01-02T04:22:59.160Z,0.00
2019-01-02T04:23:59.157Z,0.00
2019-01-02T04:24:59.200Z,0.00
2019-01-02T04:25:59.134Z,0.00
2019-01-02T04:26:59.142Z,0.00
2019-01-02T04:27:59.155Z,0.00
2019-01-02T04:28:59.163Z,0.00
2019-01-02T04:29:59.176Z,0.00
2019-01-02T04:30:59.182Z,0.00
2019-01-02T04:31:59.230Z,0.00
2019-01-02T04:32:59.183Z,0.00
2019-01-02T04:33:59.190Z,0.00
2019-01-02T04:34:59.185Z,0.00
2019-01-02T04:35:59.176Z,0.00
2019-01-02T04:36:59.213Z,0.00
2019-01-02T04:37:59.213Z,0.00
2019-01-02T04:38:59.197Z,0.00
2019-01-02T04:39:59.188Z,0.00
2019-01-02T04:40:59.243Z,0.00
2019-01-02T04:41:59.209Z,0.00
2019-01-02T04:42:59.214Z,0.00
2019-01-02T04:43:59.238Z,0.00
2019-01-02T04:44:59.232Z,0.00
2019-01-02T04:45:59.258Z,0.00
2019-01-02T04:46:59.248Z,0.00
2019-01-02T04:47:59.291Z,0.00
2019-01-02T04:48:59.212Z,0.00
2019-01-02T04:49:59.246Z,0.00
2019-01-02T04:50:59.221Z,0.00
2019-01-02T04:51:59.266Z,0.00
2019-01-02T04:52:59.218Z,0.00
2019-01-02T04:53:59.225Z,0.00
2019-01-02T04:54:59.223Z,0.00
2019-01-02T04:55:59.240Z,0.00
2019-01-02T04:56:59.250Z,0.00
2019-01-02T04:57:59.253Z,0.00
2019-01-02T04:58:59.265Z,0.00
2019-01-02T04:59:59.250Z,0.00
2019-01-02T05:00:59.268Z,0.00
2019-01-02T05:01:59.295Z,0.00
2019-01-02T05:02:59.250Z,0.00
2019-01-02T05:03:59.252Z,0.00
2019-01-02T05:04:59.310Z,0.00
2019-01-02T05:05:59.291Z,0.00
2019-01-02T05:06:59.370Z,0.00
2019-01-02T05:07:59.268Z,0.00
2019-01-02T05:08:59.323Z,0.00
2019-01-02T05:09:59.276Z,0.00
2019-01-02T05:10:59.338Z,0.00
2019-01-02T05:11:59.326Z,0.00
2019-01-02T05:12:59.329Z,0.00
2019-01-02T05:13:59.290Z,0.00
2019-01-02T05:14:59.319Z,0.00
2019-01-02T05:15:59.369Z,0.00
2019-01-02T05:16:59.324Z,0.00
2019-01-02T05:17:59.369Z,0.00
2019-01-02T05:18:59.311Z,0.00
2019-01-02T05:19:59.372Z,0.00
2019-01-02T05:20:59.332Z,0.00
2019-01-02T05:21:59.316Z,0.00
2019-01-02T05:22:59.318Z,0.00
2019-01-02T05:23:59.367Z,0.00
2019-01-02T05:24:59.326Z,0.00
2019-01-02T05:25:59.327Z,0.00
2019-01-02T05:26:59.374Z,0.00
2019-01-02T05:27:59.374Z,0.00
2019-01-02T05:28:59.366Z,0.00
2019-01-02T05:29:59.385Z,0.00
2019-01-02T05:30:59.358Z,0.00
2019-01-02T05:31:59.375Z,0.00
2019-01-02T05:32:59.395Z,0.00
2019-01-02T05:33:59.411Z,0.00
2019-01-02T05:34:59.451Z,0.00
2019-01-02T05:35:59.389Z,0.00
2019-01-02T05:36:59.449Z,0.00
2019-01-02T05:37:59.349Z,0.00
2019-01-02T05:38:59.396Z,0.00
2019-01-02T05:39:59.400Z,0.00
2019-01-02T05:40:59.408Z,0.00
2019-01-02T05:41:59.406Z,0.00
2019-01-02T05:42:59.430Z,0.00
2019-01-02T05:43:59.423Z,0.00
2019-01-02T05:44:59.424Z,0.00
2019-01-02T05:45:59.417Z,0.00
2019-01-02T05:46:59.403Z,0.00
2019-01-02T05:47:59.398Z,0.00
2019-01-02T05:48:59.439Z,0.00
2019-01-02T05:49:59.425Z,0.00
2019-01-02T05:50:59.457Z,0.00
2019-01-02T05:51:59.476Z,0.00
2019-01-02T05:52:59.447Z,0.00
2019-01-02T05:53:59.487Z,0.00
2019-01-02T05:54:59.434Z,0.00
2019-01-02T05:55:59.426Z,0.00
2019-01-02T05:56:59.493Z,0.00
2019-01-02T05:57:59.443Z,0.00
2019-01-02T05:58:59.422Z,0.00
2019-01-02T05:59:59.460Z,0.00
2019-01-02T06:00:59.473Z,0.00
2019-01-02T06:01:59.453Z,0.00
2019-01-02T06:02:59.449Z,0.00
2019-01-02T06:03:59.494Z,0.00
2019-01-02T06:04:59.511Z,0.00
2019-01-02T06:05:59.470Z,0.00
2019-01-02T06:06:59.505Z,0.00
2019-01-02T06:07:59.484Z,0.00
2019-01-02T06:08:59.512Z,0.00
2019-01-02T06:09:59.501Z,0.00
2019-01-02T06:10:59.525Z,0.00
2019-01-02T06:11:59.508Z,0.00
2019-01-02T06:12:59.511Z,0.00
2019-01-02T06:13:59.498Z,0.00
2019-01-02T06:14:59.507Z,0.00
2019-01-02T06:15:59.572Z,0.00
2019-01-02T06:16:59.497Z,0.00
2019-01-02T06:17:59.517Z,0.00
2019-01-02T06:18:59.553Z,0.00
2019-01-02T06:19:59.600Z,0.00
2019-01-02T06:20:59.577Z,0.00
2019-01-02T06:21:59.615Z,0.00
2019-01-02T06:22:59.540Z,0.00
2019-01-02T06:23:59.522Z,0.00
2019-01-02T06:24:59.512Z,0.00
2019-01-02T06:25:59.569Z,0.00
2019-01-02T06:26:59.637Z,0.00
2019-01-02T06:27:59.607Z,0.00
2019-01-02T06:28:59.584Z,0.00
2019-01-02T06:29:59.530Z,0.00
2019-01-02T06:30:59.571Z,0.00
2019-01-02T06:31:59.695Z,0.00
2019-01-02T06:32:59.530Z,0.00
2019-01-02T06:33:59.565Z,0.00
2019-01-02T06:34:59.582Z,0.00
2019-01-02T06:35:59.574Z,0.00
2019-01-02T06:36:59.597Z,0.00
2019-01-02T06:37:59.570Z,0.00
2019-01-02T06:38:59.610Z,0.00
2019-01-02T06:39:59.622Z,0.00
2019-01-02T06:40:59.615Z,0.00
2019-01-02T06:41:59.591Z,0.00
2019-01-02T06:42:59.583Z,4.00
2019-01-02T06:43:59.735Z,4.00
2019-01-02T06:44:59.685Z,0.00
2019-01-02T06:45:59.582Z,4.00
2019-01-02T06:47:00.392Z,4.00
2019-01-02T06:47:59.698Z,8.00
2019-01-02T06:48:59.607Z,4.00
2019-01-02T06:49:59.636Z,8.00
2019-01-02T06:50:59.772Z,8.00
2019-01-02T06:52:00.509Z,12.00
2019-01-02T06:52:59.670Z,8.00
2019-01-02T06:53:59.681Z,12.00
2019-01-02T06:54:59.612Z,12.00
2019-01-02T06:55:59.817Z,16.00
2019-01-02T06:56:59.642Z,16.00
2019-01-02T06:57:59.646Z,24.00
2019-01-02T06:58:59.677Z,24.00
2019-01-02T06:59:59.627Z,24.00
2019-01-02T07:00:59.685Z,32.00
2019-01-02T07:01:59.622Z,36.00
2019-01-02T07:02:59.667Z,40.00
2019-01-02T07:03:59.670Z,48.00
2019-01-02T07:04:59.616Z,48.00
2019-01-02T07:05:59.663Z,52.00
2019-01-02T07:06:59.774Z,60.00
2019-01-02T07:07:59.725Z,72.00
2019-01-02T07:08:59.856Z,80.00
2019-01-02T07:10:01.020Z,80.00
2019-01-02T07:10:59.893Z,92.00
2019-01-02T07:11:59.678Z,100.00
2019-01-02T07:12:59.810Z,96.00
2019-01-02T07:13:59.756Z,96.00
2019-01-02T07:14:59.783Z,108.00
2019-01-02T07:15:59.697Z,120.00
2019-01-02T07:16:59.724Z,128.00
2019-01-02T07:17:59.724Z,136.00
2019-01-02T07:18:59.711Z,148.00
2019-01-02T07:19:59.753Z,144.00
2019-01-02T07:20:59.718Z,144.00
2019-01-02T07:21:59.792Z,140.00
2019-01-02T07:22:59.742Z,148.00
2019-01-02T07:23:59.871Z,156.00
2019-01-02T07:24:59.691Z,156.00
2019-01-02T07:25:59.700Z,168.00
2019-01-02T07:26:59.702Z,200.00
2019-01-02T07:27:59.767Z,212.00
2019-01-02T07:28:59.816Z,216.00
2019-01-02T07:29:59.719Z,200.00
2019-01-02T07:30:59.786Z,212.00
2019-01-02T07:31:59.782Z,248.00
2019-01-02T07:32:59.780Z,240.00
2019-01-02T07:33:59.819Z,216.00
2019-01-02T07:34:59.799Z,220.00
2019-01-02T07:35:59.892Z,224.00
2019-01-02T07:36:59.839Z,252.00
2019-01-02T07:37:59.894Z,260.00
2019-01-02T07:38:59.771Z,276.00
2019-01-02T07:39:59.750Z,324.00
2019-01-02T07:40:59.854Z,316.00
2019-01-02T07:41:59.817Z,296.00
2019-01-02T07:42:59.803Z,300.00
2019-01-02T07:43:59.753Z,316.00
2019-01-02T07:44:59.756Z,328.00
2019-01-02T07:45:59.795Z,336.00
2019-01-02T07:47:00.041Z,344.00
2019-01-02T07:47:59.769Z,340.00
2019-01-02T07:48:59.812Z,384.00
2019-01-02T07:49:59.805Z,440.00
2019-01-02T07:51:00.328Z,436.00
2019-01-02T07:51:59.819Z,420.00
2019-01-02T07:52:59.785Z,452.00
2019-01-02T07:53:59.830Z,472.00
2019-01-02T07:55:00.921Z,460.00
2019-01-02T07:55:59.788Z,508.00
2019-01-02T07:56:59.852Z,528.00
2019-01-02T07:57:59.841Z,568.00
2019-01-02T07:58:59.800Z,588.00
2019-01-02T08:00:00.161Z,592.00
2019-01-02T08:00:59.898Z,576.00
2019-01-02T08:01:59.850Z,540.00
2019-01-02T08:02:59.887Z,604.00
2019-01-02T08:03:59.827Z,656.00
2019-01-02T08:04:59.821Z,660.00
2019-01-02T08:05:59.810Z,680.00
2019-01-02T08:06:59.859Z,696.00
2019-01-02T08:07:59.878Z,688.00
2019-01-02T08:08:59.916Z,680.00
2019-01-02T08:09:59.891Z,680.00
2019-01-02T08:10:59.844Z,704.00
2019-01-02T08:11:59.869Z,732.00
2019-01-02T08:13:00.007Z,756.00
2019-01-02T08:13:59.972Z,748.00
2019-01-02T08:15:03.265Z,724.00
2019-01-02T08:15:59.875Z,724.00
2019-01-02T08:16:59.854Z,740.00
2019-01-02T08:17:59.884Z,740.00
2019-01-02T08:18:59.872Z,772.00
2019-01-02T08:19:59.906Z,764.00
2019-01-02T08:20:59.886Z,736.00
2019-01-02T08:21:59.897Z,708.00
2019-01-02T08:23:00.081Z,780.00
2019-01-02T08:23:59.894Z,852.00
2019-01-02T08:25:00.003Z,932.00
2019-01-02T08:25:59.889Z,968.00
2019-01-02T08:26:59.887Z,1044.00
2019-01-02T08:27:59.897Z,1044.00
2019-01-02T08:29:00.052Z,988.00
2019-01-02T08:29:59.908Z,1008.00
2019-01-02T08:30:59.957Z,980.00
2019-01-02T08:31:59.894Z,924.00
2019-01-02T08:32:59.899Z,916.00
2019-01-02T08:33:59.914Z,992.00
2019-01-02T08:34:59.957Z,1128.00
2019-01-02T08:35:59.960Z,1220.00
2019-01-02T08:37:01.078Z,1204.00
2019-01-02T08:37:59.910Z,1124.00
2019-01-02T08:38:59.921Z,1192.00
2019-01-02T08:39:59.929Z,1148.00
2019-01-02T08:40:59.994Z,1216.00
2019-01-02T08:41:59.989Z,1204.00
2019-01-02T08:43:00.626Z,1040.00
2019-01-02T08:43:59.924Z,1028.00
2019-01-02T08:44:59.986Z,864.00
2019-01-02T08:45:59.976Z,828.00
2019-01-02T08:47:00.248Z,756.00
2019-01-02T08:47:59.953Z,888.00
2019-01-02T08:48:59.958Z,1012.00
2019-01-02T08:50:00.158Z,1004.00
2019-01-02T08:51:00.436Z,956.00
2019-01-02T08:52:00.040Z,984.00
2019-01-02T08:52:59.987Z,776.00
2019-01-02T08:53:59.993Z,780.00
2019-01-02T08:54:59.966Z,664.00
2019-01-02T08:56:00.014Z,580.00
2019-01-02T08:57:00.054Z,544.00
2019-01-02T08:58:00.254Z,488.00
2019-01-02T08:59:00.124Z,508.00
2019-01-02T09:00:00.244Z,628.00
2019-01-02T09:01:00.153Z,928.00
2019-01-02T09:02:00.088Z,1136.00
2019-01-02T09:03:00.164Z,1452.00
2019-01-02T09:04:00.018Z,1596.00
2019-01-02T09:05:00.001Z,1492.00
2019-01-02T09:06:00.037Z,1280.00
2019-01-02T09:07:00.261Z,980.00
2019-01-02T09:08:00.094Z,716.00
2019-01-02T09:09:00.001Z,680.00
2019-01-02T09:10:00.000Z,944.00
2019-01-02T09:11:00.084Z,1488.00
2019-01-02T09:12:00.065Z,1980.00
2019-01-02T09:13:00.059Z,2124.00
2019-01-02T09:14:00.022Z,2208.00
2019-01-02T09:15:00.016Z,2340.00
2019-01-02T09:16:00.221Z,2396.00
2019-01-02T09:17:00.064Z,2568.00
2019-01-02T09:18:00.112Z,2604.00
2019-01-02T09:19:00.038Z,3168.00
2019-01-02T09:20:00.020Z,3620.00
2019-01-02T09:21:00.151Z,3844.00
2019-01-02T09:22:00.041Z,3544.00
2019-01-02T09:23:00.052Z,3112.00
2019-01-02T09:24:00.071Z,3112.00
2019-01-02T09:25:00.240Z,3200.00
2019-01-02T09:26:00.060Z,3152.00
2019-01-02T09:27:00.121Z,2756.00
2019-01-02T09:28:00.037Z,2528.00
2019-01-02T09:29:00.049Z,2504.00
2019-01-02T09:30:00.247Z,2660.00
2019-01-02T09:31:00.133Z,2316.00
2019-01-02T09:32:00.052Z,1976.00
2019-01-02T09:33:00.098Z,1684.00
2019-01-02T09:34:00.067Z,1464.00
2019-01-02T09:35:00.128Z,1832.00
2019-01-02T09:36:00.079Z,2136.00
2019-01-02T09:37:00.061Z,2476.00
2019-01-02T09:38:00.073Z,2820.00
2019-01-02T09:39:00.103Z,2948.00
2019-01-02T09:40:00.497Z,3000.00
2019-01-02T09:41:00.090Z,3084.00
2019-01-02T09:42:00.070Z,2932.00
2019-01-02T09:43:00.094Z,2908.00
2019-01-02T09:44:00.084Z,2944.00
2019-01-02T09:45:00.171Z,2956.00
2019-01-02T09:46:00.126Z,2936.00
2019-01-02T09:47:00.150Z,2852.00
2019-01-02T09:48:00.123Z,3004.00
2019-01-02T09:49:00.137Z,3188.00
2019-01-02T09:50:00.201Z,3328.00
2019-01-02T09:51:00.130Z,3492.00
2019-01-02T09:52:00.131Z,3628.00
2019-01-02T09:53:00.195Z,3612.00
2019-01-02T09:54:00.145Z,3584.00
2019-01-02T09:55:01.558Z,3484.00
2019-01-02T09:56:00.129Z,3384.00
2019-01-02T09:57:00.110Z,3424.00
2019-01-02T09:58:00.141Z,3392.00
2019-01-02T09:59:00.124Z,3420.00
2019-01-02T10:00:00.198Z,3420.00
2019-01-02T10:01:00.138Z,3376.00
2019-01-02T10:02:00.649Z,3484.00
2019-01-02T10:03:00.130Z,3476.00
2019-01-02T10:04:00.140Z,3476.00
2019-01-02T10:05:00.220Z,3516.00
2019-01-02T10:06:00.142Z,3584.00
2019-01-02T10:07:00.981Z,3580.00
2019-01-02T10:08:00.174Z,3556.00
2019-01-02T10:09:00.161Z,3592.00
2019-01-02T10:10:00.228Z,3644.00
2019-01-02T10:11:00.140Z,3684.00
2019-01-02T10:12:00.156Z,3716.00
2019-01-02T10:13:00.177Z,3656.00
2019-01-02T10:14:00.189Z,3700.00
2019-01-02T10:15:00.246Z,3628.00
2019-01-02T10:16:00.306Z,3652.00
2019-01-02T10:17:00.159Z,3596.00
2019-01-02T10:18:00.152Z,3564.00
2019-01-02T10:19:00.259Z,3572.00
2019-01-02T10:20:00.198Z,3512.00
2019-01-02T10:21:00.162Z,3460.00
2019-01-02T10:22:00.182Z,3408.00
2019-01-02T10:23:00.167Z,3408.00
2019-01-02T10:24:00.177Z,3424.00
2019-01-02T10:25:00.210Z,3464.00
2019-01-02T10:26:00.186Z,3548.00
2019-01-02T10:27:00.182Z,3620.00
2019-01-02T10:28:00.182Z,3600.00
2019-01-02T10:29:00.212Z,3612.00
2019-01-02T10:30:00.271Z,3548.00
2019-01-02T10:31:00.197Z,3492.00
2019-01-02T10:32:00.204Z,3364.00
2019-01-02T10:33:00.220Z,3300.00
2019-01-02T10:34:00.193Z,3248.00
2019-01-02T10:35:00.225Z,3260.00
2019-01-02T10:36:00.241Z,3208.00
2019-01-02T10:37:00.212Z,3172.00
2019-01-02T10:38:00.265Z,3168.00
2019-01-02T10:39:00.396Z,3216.00
2019-01-02T10:40:00.270Z,3276.00
2019-01-02T10:41:00.379Z,3348.00
2019-01-02T10:42:00.259Z,3404.00
2019-01-02T10:43:00.280Z,3420.00
2019-01-02T10:44:00.245Z,3340.00
2019-01-02T10:45:00.267Z,3320.00
2019-01-02T10:46:00.269Z,3320.00
2019-01-02T10:47:00.324Z,3320.00
2019-01-02T10:48:00.281Z,3336.00
2019-01-02T10:49:00.250Z,3300.00
2019-01-02T10:50:00.263Z,3288.00
2019-01-02T10:51:00.251Z,3200.00
2019-01-02T10:52:00.247Z,3280.00
2019-01-02T10:53:00.278Z,3320.00
2019-01-02T10:54:00.376Z,3248.00
2019-01-02T10:55:00.258Z,3044.00
2019-01-02T10:56:00.259Z,2864.00
2019-01-02T10:57:00.269Z,2724.00
2019-01-02T10:58:00.316Z,2656.00
2019-01-02T10:59:00.270Z,2616.00
2019-01-02T11:00:00.267Z,2636.00
2019-01-02T11:01:00.319Z,2560.00
2019-01-02T11:02:00.272Z,2560.00
2019-01-02T11:03:00.350Z,2480.00
2019-01-02T11:04:00.323Z,2444.00
2019-01-02T11:05:00.369Z,2444.00
2019-01-02T11:06:00.285Z,2400.00
2019-01-02T11:07:00.319Z,2320.00
2019-01-02T11:08:00.289Z,2288.00
2019-01-02T11:09:00.360Z,2296.00
2019-01-02T11:10:00.348Z,2324.00
2019-01-02T11:11:00.337Z,2380.00
2019-01-02T11:12:00.307Z,2480.00
2019-01-02T11:13:00.314Z,2544.00
2019-01-02T11:14:00.353Z,2588.00
2019-01-02T11:15:00.398Z,2628.00
2019-01-02T11:16:00.345Z,2600.00
2019-01-02T11:17:00.337Z,2636.00
2019-01-02T11:18:00.363Z,2692.00
2019-01-02T11:19:00.351Z,2712.00
2019-01-02T11:20:00.351Z,2680.00
2019-01-02T11:21:00.325Z,2704.00
2019-01-02T11:22:00.385Z,2696.00
2019-01-02T11:23:00.368Z,2828.00
2019-01-02T11:24:00.353Z,2600.00
2019-01-02T11:25:00.353Z,2564.00
2019-01-02T11:26:00.463Z,2484.00
2019-01-02T11:27:00.348Z,2428.00
2019-01-02T11:28:00.362Z,2388.00
2019-01-02T11:29:00.394Z,2544.00
2019-01-02T11:30:00.370Z,2716.00
2019-01-02T11:31:00.360Z,2924.00
2019-01-02T11:32:00.432Z,3268.00
2019-01-02T11:33:00.407Z,3528.00
2019-01-02T11:34:00.409Z,3520.00
2019-01-02T11:35:00.375Z,2948.00
2019-01-02T11:36:00.391Z,3584.00
2019-01-02T11:37:00.487Z,3700.00
2019-01-02T11:38:00.383Z,2920.00
2019-01-02T11:39:00.386Z,3020.00
2019-01-02T11:40:00.377Z,3508.00
2019-01-02T11:41:00.369Z,4032.00
2019-01-02T11:42:00.519Z,3564.00
2019-01-02T11:43:00.567Z,3476.00
2019-01-02T11:44:00.723Z,4148.00
2019-01-02T11:45:00.486Z,3564.00
2019-01-02T11:46:00.411Z,3764.00
2019-01-02T11:47:00.403Z,3624.00
2019-01-02T11:48:00.428Z,3008.00
2019-01-02T11:49:00.417Z,2916.00
2019-01-02T11:50:00.406Z,3348.00
2019-01-02T11:51:00.414Z,3292.00
2019-01-02T11:52:00.484Z,3792.00
2019-01-02T11:53:00.444Z,2892.00
2019-01-02T11:54:00.417Z,2656.00
2019-01-02T11:55:00.406Z,2588.00
2019-01-02T11:56:01.529Z,2748.00
2019-01-02T11:57:00.430Z,2740.00
2019-01-02T11:58:00.447Z,2680.00
2019-01-02T11:59:00.441Z,2620.00
2019-01-02T12:00:00.451Z,2500.00
2019-01-02T12:01:00.430Z,2332.00
2019-01-02T12:02:00.510Z,2344.00
2019-01-02T12:03:00.451Z,2340.00
2019-01-02T12:04:00.458Z,2372.00
2019-01-02T12:05:00.448Z,2340.00
2019-01-02T12:06:00.453Z,2268.00
2019-01-02T12:07:00.495Z,2204.00
2019-01-02T12:08:00.477Z,2264.00
2019-01-02T12:09:00.445Z,2296.00
2019-01-02T12:10:00.607Z,2328.00
2019-01-02T12:11:00.531Z,2368.00
2019-01-02T12:12:00.507Z,2368.00
2019-01-02T12:13:00.481Z,2332.00
2019-01-02T12:14:00.516Z,2248.00
2019-01-02T12:15:00.546Z,2220.00
2019-01-02T12:16:00.531Z,2200.00
2019-01-02T12:17:00.515Z,2192.00
2019-01-02T12:18:00.496Z,2188.00
2019-01-02T12:19:00.516Z,2196.00
2019-01-02T12:20:00.576Z,2192.00
2019-01-02T12:21:00.532Z,2208.00
2019-01-02T12:22:00.589Z,2196.00
2019-01-02T12:23:00.568Z,2192.00
2019-01-02T12:24:00.507Z,2192.00
2019-01-02T12:25:00.528Z,2208.00
2019-01-02T12:26:00.510Z,2224.00
2019-01-02T12:27:00.512Z,2224.00
2019-01-02T12:28:00.561Z,2272.00
2019-01-02T12:29:00.577Z,2316.00
2019-01-02T12:30:00.625Z,2328.00
2019-01-02T12:31:00.518Z,2312.00
2019-01-02T12:32:00.588Z,2308.00
2019-01-02T12:33:00.772Z,2364.00
2019-01-02T12:34:00.691Z,2500.00
2019-01-02T12:35:00.539Z,2612.00
2019-01-02T12:36:00.999Z,2768.00
2019-01-02T12:37:00.527Z,2584.00
2019-01-02T12:38:00.561Z,2656.00
2019-01-02T12:39:00.619Z,2344.00
2019-01-02T12:40:00.549Z,2360.00
2019-01-02T12:41:00.810Z,2256.00
2019-01-02T12:42:00.581Z,2152.00
2019-01-02T12:43:00.540Z,2160.00
2019-01-02T12:44:00.560Z,2180.00
2019-01-02T12:45:01.516Z,2200.00
2019-01-02T12:46:00.571Z,2228.00
2019-01-02T12:47:00.578Z,2312.00
2019-01-02T12:48:00.588Z,2224.00